createdAt,value
2019-05-15T00:02:18.570Z,59.22
2019-05-15T00:04:49.148Z,59.22
2019-05-15T00:07:19.196Z,59.17
2019-05-15T00:09:49.304Z,59.44
2019-05-15T00:12:20.357Z,58.91
2019-05-15T00:14:51.085Z,58.67
2019-05-15T00:17:20.725Z,59.04
2019-05-15T00:19:50.353Z,59.44
2019-05-15T00:22:21.606Z,59.44
2019-05-15T00:24:51.148Z,59.42
2019-05-15T00:27:21.013Z,59.40
2019-05-15T00:29:50.614Z,60.00
2019-05-15T00:32:20.433Z,60.16
2019-05-15T00:34:50.101Z,60.16
2019-05-15T00:37:19.745Z,60.51
2019-05-15T00:39:50.885Z,60.21
2019-05-15T00:42:20.976Z,59.93
2019-05-15T00:44:50.983Z,60.92
2019-05-15T00:47:20.575Z,60.92
2019-05-15T00:49:50.152Z,60.64
2019-05-15T00:52:19.634Z,61.16
2019-05-15T00:54:49.652Z,61.17
2019-05-15T00:57:20.993Z,61.17
2019-05-15T00:59:50.535Z,60.67
2019-05-15T01:02:21.080Z,60.36
2019-05-15T01:04:50.530Z,60.70
2019-05-15T01:07:19.851Z,60.70
2019-05-15T01:09:49.556Z,61.12
2019-05-15T01:12:19.046Z,60.76
2019-05-15T01:14:50.913Z,60.83
2019-05-15T01:17:20.417Z,60.83
2019-05-15T01:19:49.972Z,60.72
2019-05-15T01:22:19.649Z,60.40
2019-05-15T01:24:54.140Z,61.38
2019-05-15T01:27:23.627Z,60.74
2019-05-15T01:29:53.182Z,60.74
2019-05-15T01:32:22.676Z,59.98
2019-05-15T01:34:52.699Z,60.85
2019-05-15T01:37:22.121Z,60.86
2019-05-15T01:39:51.868Z,60.46
2019-05-15T01:42:23.122Z,60.46
2019-05-15T01:44:52.643Z,60.26
2019-05-15T01:47:22.344Z,60.68
2019-05-15T01:49:52.430Z,60.83
2019-05-15T01:52:21.976Z,60.94
2019-05-15T01:54:53.711Z,60.94
2019-05-15T01:57:23.320Z,61.36
2019-05-15T01:59:57.366Z,61.36
2019-05-15T02:02:27.975Z,61.79
2019-05-15T02:04:59.145Z,61.79
2019-05-15T02:07:28.501Z,60.90
2019-05-15T02:09:58.295Z,61.30
2019-05-15T02:12:28.666Z,61.30
2019-05-15T02:14:58.786Z,61.65
2019-05-15T02:17:28.422Z,61.25
2019-05-15T02:19:58.744Z,62.00
2019-05-15T02:22:28.502Z,61.48
2019-05-15T02:24:59.270Z,61.92
2019-05-15T02:27:29.593Z,61.92
2019-05-15T02:30:16.761Z,61.33
2019-05-15T02:32:30.427Z,62.14
2019-05-15T02:35:00.008Z,62.14
2019-05-15T02:37:29.797Z,61.39
2019-05-15T02:39:59.131Z,61.39
2019-05-15T02:42:29.169Z,61.07
2019-05-15T02:44:59.048Z,62.30
2019-05-15T02:47:33.269Z,61.66
2019-05-15T02:50:02.943Z,62.42
2019-05-15T02:52:32.479Z,62.09
2019-05-15T02:55:03.837Z,61.53
2019-05-15T02:57:33.327Z,61.53
2019-05-15T03:00:03.184Z,61.21
2019-05-15T03:02:32.729Z,61.49
2019-05-15T03:05:03.554Z,61.49
2019-05-15T03:07:33.142Z,60.51
2019-05-15T03:10:04.835Z,60.51
2019-05-15T03:12:34.316Z,61.18
2019-05-15T03:15:05.322Z,61.18
2019-05-15T03:17:34.968Z,61.23
2019-05-15T03:20:04.396Z,60.87
2019-05-15T03:22:35.535Z,60.87
2019-05-15T03:25:05.858Z,60.09
2019-05-15T03:27:35.346Z,61.00
2019-05-15T03:30:12.199Z,61.00
2019-05-15T03:32:46.787Z,60.57
2019-05-15T03:35:14.694Z,61.10
2019-05-15T03:37:42.652Z,60.60
2019-05-15T03:40:13.670Z,60.60
2019-05-15T03:42:44.466Z,60.51
2019-05-15T03:45:14.175Z,60.77
2019-05-15T03:47:43.748Z,60.77
2019-05-15T03:50:13.474Z,60.67
2019-05-15T03:52:44.170Z,59.97
2019-05-15T03:55:13.612Z,61.23
2019-05-15T03:57:45.049Z,61.23
2019-05-15T04:00:19.323Z,60.82
2019-05-15T04:02:48.814Z,60.82
2019-05-15T04:05:19.890Z,61.29
2019-05-15T04:07:49.710Z,61.16
2019-05-15T04:10:20.088Z,61.16
2019-05-15T04:12:50.145Z,60.90
2019-05-15T04:15:19.834Z,60.85
2019-05-15T04:17:49.593Z,60.61
2019-05-15T04:20:20.211Z,61.54
2019-05-15T04:22:49.835Z,61.00
2019-05-15T04:25:20.166Z,61.12
2019-05-15T04:27:51.853Z,61.12
2019-05-15T04:30:21.676Z,59.98
2019-05-15T04:32:52.561Z,59.98
2019-05-15T04:35:22.587Z,59.90
2019-05-15T04:37:52.290Z,59.90
2019-05-15T04:40:22.310Z,58.72
2019-05-15T04:42:51.792Z,58.44
2019-05-15T04:45:21.265Z,59.47
2019-05-15T04:47:51.322Z,59.44
2019-05-15T04:50:23.776Z,59.20
2019-05-15T04:52:53.264Z,58.09
2019-05-15T04:55:22.838Z,57.68
2019-05-15T04:57:52.482Z,57.68
2019-05-15T05:00:44.798Z,56.87
2019-05-15T05:03:14.556Z,55.27
2019-05-15T05:05:44.588Z,55.27
2019-05-15T05:08:14.199Z,55.00
2019-05-15T05:10:43.761Z,53.67
2019-05-15T05:13:13.395Z,53.76
2019-05-15T05:15:42.912Z,53.38
2019-05-15T05:18:12.623Z,53.38
2019-05-15T05:20:42.571Z,52.79
2019-05-15T05:23:12.488Z,52.85
2019-05-15T05:25:44.345Z,52.19
2019-05-15T05:28:14.045Z,52.24
2019-05-15T05:30:47.966Z,52.02
2019-05-15T05:33:18.744Z,52.01
2019-05-15T05:35:49.022Z,52.30
2019-05-15T05:38:24.215Z,52.79
2019-05-15T05:41:01.403Z,52.64
2019-05-15T05:43:31.084Z,52.64
2019-05-15T05:46:03.165Z,52.45
2019-05-15T05:48:34.451Z,52.21
2019-05-15T05:51:03.986Z,52.21
2019-05-15T05:53:33.730Z,52.78
2019-05-15T05:56:03.540Z,52.78
2019-05-15T05:58:33.081Z,53.00
2019-05-15T06:01:02.588Z,53.00
2019-05-15T06:03:31.947Z,51.23
2019-05-15T06:06:02.521Z,51.23
2019-05-15T06:08:31.955Z,51.13
2019-05-15T06:11:04.987Z,51.13
2019-05-15T06:13:38.259Z,51.02
2019-05-15T06:16:10.726Z,49.90
2019-05-15T06:18:40.100Z,49.77
2019-05-15T06:21:10.349Z,47.96
2019-05-15T06:23:45.681Z,47.96
2019-05-15T06:26:11.211Z,45.72
2019-05-15T06:28:40.875Z,45.72
2019-05-15T06:31:14.424Z,46.39
2019-05-15T06:33:44.728Z,45.51
2019-05-15T06:36:14.277Z,45.51
2019-05-15T06:38:44.153Z,45.67
2019-05-15T06:41:13.850Z,44.88
2019-05-15T06:43:44.600Z,44.88
2019-05-15T06:46:14.404Z,45.12
2019-05-15T06:48:44.147Z,45.12
2019-05-15T06:51:13.527Z,44.52
2019-05-15T06:53:42.951Z,44.52
2019-05-15T06:56:15.055Z,44.90
2019-05-15T06:58:44.435Z,43.78
2019-05-15T07:01:14.102Z,43.78
2019-05-15T07:03:43.548Z,42.96
2019-05-15T07:06:13.274Z,43.46
2019-05-15T07:08:44.237Z,43.46
2019-05-15T07:11:14.293Z,43.13
2019-05-15T07:13:45.101Z,43.90
2019-05-15T07:16:14.816Z,43.90
2019-05-15T07:18:48.599Z,43.95
2019-05-15T07:21:23.674Z,43.57
2019-05-15T07:23:53.140Z,42.98
2019-05-15T07:26:23.080Z,42.98
2019-05-15T07:28:53.884Z,43.26
2019-05-15T07:31:23.276Z,42.26
2019-05-15T07:33:53.258Z,42.19
2019-05-15T07:36:22.744Z,41.15
2019-05-15T07:38:54.432Z,40.86
2019-05-15T07:41:28.296Z,40.86
2019-05-15T07:43:58.600Z,41.64
2019-05-15T07:46:28.969Z,39.49
2019-05-15T07:48:58.618Z,39.17
2019-05-15T07:51:28.748Z,38.30
2019-05-15T07:53:58.669Z,38.30
2019-05-15T07:56:28.983Z,37.71
2019-05-15T07:58:58.758Z,37.71
2019-05-15T08:01:29.131Z,36.80
2019-05-15T08:04:14.521Z,35.66
2019-05-15T08:06:30.216Z,34.74
2019-05-15T08:09:00.145Z,34.78
2019-05-15T08:11:31.577Z,34.78
2019-05-15T08:14:03.661Z,33.05
2019-05-15T08:16:33.141Z,32.47
2019-05-15T08:19:03.059Z,32.47
2019-05-15T08:21:33.982Z,31.74
2019-05-15T08:24:04.224Z,32.19
2019-05-15T08:26:34.158Z,33.80
2019-05-15T08:29:03.638Z,33.77
2019-05-15T08:31:33.392Z,31.99
2019-05-15T08:34:15.297Z,32.88
2019-05-15T08:36:34.861Z,32.88
2019-05-15T08:39:08.351Z,33.14
2019-05-15T08:41:39.073Z,33.08
2019-05-15T08:44:09.119Z,33.03
2019-05-15T08:46:38.925Z,33.63
2019-05-15T08:49:09.312Z,30.89
2019-05-15T08:51:39.535Z,30.89
2019-05-15T08:54:09.023Z,31.67
2019-05-15T08:56:39.499Z,31.67
2019-05-15T08:59:09.317Z,32.69
2019-05-15T09:01:39.003Z,31.73
2019-05-15T09:04:09.304Z,31.75
2019-05-15T09:06:41.461Z,31.75
2019-05-15T09:09:12.383Z,31.76
2019-05-15T09:11:42.253Z,32.12
2019-05-15T09:14:12.791Z,31.41
2019-05-15T09:16:42.643Z,32.03
2019-05-15T09:19:12.548Z,32.03
2019-05-15T09:21:41.899Z,33.14
2019-05-15T09:24:11.421Z,33.14
2019-05-15T09:26:40.882Z,33.04
2019-05-15T09:29:11.600Z,32.25
2019-05-15T09:31:41.205Z,32.25
2019-05-15T09:34:11.312Z,31.85
2019-05-15T09:36:45.151Z,32.85
2019-05-15T09:39:13.474Z,32.81
2019-05-15T09:41:45.867Z,32.95
2019-05-15T09:44:15.647Z,31.47
2019-05-15T09:46:45.668Z,31.47
2019-05-15T09:49:18.227Z,32.78
2019-05-15T09:51:48.997Z,32.39
2019-05-15T09:54:19.344Z,33.46
2019-05-15T09:56:49.571Z,33.46
2019-05-15T09:59:20.713Z,32.60
2019-05-15T10:01:50.382Z,32.45
2019-05-15T10:04:22.148Z,32.44
2019-05-15T10:06:56.760Z,33.08
2019-05-15T10:09:28.443Z,33.08
2019-05-15T10:11:58.090Z,32.24
2019-05-15T10:14:32.230Z,32.24
2019-05-15T10:16:59.414Z,32.11
2019-05-15T10:19:29.230Z,31.70
2019-05-15T10:22:00.988Z,33.03
2019-05-15T10:24:30.694Z,33.03
2019-05-15T10:27:00.430Z,33.21
2019-05-15T10:29:30.309Z,33.21
2019-05-15T10:31:59.772Z,32.74
2019-05-15T10:34:29.235Z,33.07
2019-05-15T10:36:59.797Z,33.07
2019-05-15T10:39:31.781Z,33.42
2019-05-15T10:42:02.199Z,32.83
2019-05-15T10:44:33.290Z,32.57
2019-05-15T10:47:08.711Z,31.78
2019-05-15T10:49:39.024Z,32.47
2019-05-15T10:52:11.366Z,33.24
2019-05-15T10:54:42.755Z,33.24
2019-05-15T10:57:14.010Z,33.26
2019-05-15T10:59:45.083Z,32.66
2019-05-15T11:02:14.843Z,32.66
2019-05-15T11:04:45.566Z,32.20
2019-05-15T11:07:15.755Z,32.20
2019-05-15T11:09:45.166Z,32.33
2019-05-15T11:12:14.620Z,31.98
2019-05-15T11:14:44.440Z,31.98
2019-05-15T11:17:17.264Z,32.27
2019-05-15T11:19:49.822Z,31.93
2019-05-15T11:22:19.577Z,31.42
2019-05-15T11:24:53.913Z,31.42
2019-05-15T11:27:31.450Z,30.90
2019-05-15T11:29:58.558Z,31.09
2019-05-15T11:32:30.436Z,30.86
2019-05-15T11:35:03.962Z,32.37
2019-05-15T11:37:31.172Z,31.44
2019-05-15T11:40:01.235Z,32.16
2019-05-15T11:42:31.048Z,30.89
2019-05-15T11:45:03.475Z,31.55
2019-05-15T11:47:32.978Z,31.86
2019-05-15T11:50:03.950Z,32.31
2019-05-15T11:52:36.585Z,30.47
2019-05-15T11:55:08.333Z,30.47
2019-05-15T11:57:46.091Z,31.14
2019-05-15T12:00:17.084Z,32.65
2019-05-15T12:02:42.766Z,31.98
2019-05-15T12:05:14.563Z,32.67
2019-05-15T12:07:47.686Z,33.42
2019-05-15T12:10:15.233Z,33.43
2019-05-15T12:12:44.909Z,33.41
2019-05-15T12:15:14.375Z,32.78
2019-05-15T12:17:43.742Z,32.78
2019-05-15T12:20:13.727Z,31.42
2019-05-15T12:22:43.213Z,32.74
2019-05-15T12:25:12.843Z,33.39
2019-05-15T12:27:42.287Z,33.11
2019-05-15T12:30:12.401Z,33.11
2019-05-15T12:32:41.945Z,32.69
2019-05-15T12:35:11.795Z,32.84
2019-05-15T12:37:44.872Z,32.94
2019-05-15T13:00:32.595Z,32.93
2019-05-15T13:03:05.201Z,32.56
2019-05-15T13:05:36.038Z,33.22
2019-05-15T13:08:19.316Z,33.22
2019-05-15T13:10:48.782Z,31.76
2019-05-15T13:13:18.787Z,31.86
2019-05-15T13:15:48.861Z,31.86
2019-05-15T13:18:18.511Z,32.56
2019-05-15T13:20:49.140Z,32.09
2019-05-15T13:23:19.034Z,32.53
2019-05-15T13:25:48.815Z,32.53
2019-05-15T13:28:18.685Z,32.55
2019-05-15T13:30:51.102Z,31.67
2019-05-15T13:33:20.628Z,31.67
2019-05-15T13:35:52.835Z,32.42
2019-05-15T13:38:22.255Z,31.94
2019-05-15T13:40:52.595Z,31.94
2019-05-15T13:43:22.197Z,31.92
2019-05-15T13:45:51.735Z,31.07
2019-05-15T13:50:45.320Z,31.01
2019-05-15T13:53:18.044Z,31.34
2019-05-15T13:55:48.882Z,30.61
2019-05-15T13:58:18.804Z,30.61
2019-05-15T14:00:49.143Z,30.29
2019-05-15T14:03:22.674Z,31.23
2019-05-15T14:05:52.459Z,30.63
2019-05-15T14:08:21.998Z,30.63
2019-05-15T14:10:51.753Z,30.90
2019-05-15T14:13:21.395Z,30.62
2019-05-15T14:15:51.109Z,30.62
2019-05-15T14:18:22.072Z,30.63
2019-05-15T14:20:51.602Z,30.12
2019-05-15T14:23:21.394Z,30.12
2019-05-15T14:25:50.926Z,30.68
2019-05-15T14:28:20.498Z,30.68
2019-05-15T14:30:49.966Z,29.66
2019-05-15T14:33:19.558Z,29.66
2019-05-15T14:35:52.524Z,30.38
2019-05-15T14:40:54.990Z,29.58
2019-05-15T14:43:24.503Z,29.49
2019-05-15T14:45:54.041Z,29.49
2019-05-15T14:48:23.809Z,29.49
2019-05-15T14:50:59.038Z,29.69
2019-05-15T14:53:29.734Z,29.69
2019-05-15T14:56:01.937Z,29.11
2019-05-15T14:58:33.978Z,28.36
2019-05-15T15:01:04.617Z,28.85
2019-05-15T15:03:35.215Z,28.85
2019-05-15T15:06:08.477Z,29.54
2019-05-15T15:08:36.304Z,29.11
2019-05-15T15:11:08.726Z,28.51
2019-05-15T15:13:38.721Z,28.51
2019-05-15T15:16:08.619Z,28.97
2019-05-15T15:18:38.805Z,28.66
2019-05-15T15:21:08.748Z,28.66
2019-05-15T15:23:39.006Z,29.11
2019-05-15T15:26:09.065Z,29.01
2019-05-15T15:28:44.553Z,29.01
2019-05-15T15:31:14.687Z,27.52
2019-05-15T15:33:44.773Z,27.56
2019-05-15T15:36:16.846Z,27.56
2019-05-15T15:38:48.377Z,27.32
2019-05-15T15:41:18.109Z,27.16
2019-05-15T15:43:48.583Z,27.00
2019-05-15T15:46:22.059Z,26.88
2019-05-15T15:48:59.480Z,27.03
2019-05-15T15:51:29.545Z,27.33
2019-05-15T15:53:59.196Z,27.33
2019-05-15T15:56:29.194Z,26.76
2019-05-15T15:59:02.815Z,26.76
2019-05-15T16:01:32.502Z,27.37
2019-05-15T16:04:04.062Z,27.37
2019-05-15T16:06:38.719Z,26.72
2019-05-15T16:09:09.664Z,27.09
2019-05-15T16:11:42.334Z,27.36
2019-05-15T16:14:13.065Z,27.17
2019-05-15T16:16:44.138Z,26.98
2019-05-15T16:19:18.893Z,26.98
2019-05-15T16:21:49.710Z,27.55
2019-05-15T16:24:21.782Z,27.55
2019-05-15T16:26:54.047Z,28.75
2019-05-15T16:29:28.110Z,28.71
2019-05-15T16:31:59.255Z,29.64
2019-05-15T16:34:31.004Z,29.64
2019-05-15T16:37:01.826Z,29.27
2019-05-15T16:39:31.290Z,29.46
2019-05-15T16:42:00.844Z,29.16
2019-05-15T16:44:31.907Z,29.16
2019-05-15T16:47:08.271Z,30.08
2019-05-15T16:49:42.044Z,30.08
2019-05-15T16:52:11.696Z,30.36
2019-05-15T16:54:41.654Z,31.16
2019-05-15T16:57:13.612Z,31.16
2019-05-15T16:59:48.062Z,32.34
2019-05-15T17:02:20.658Z,33.02
2019-05-15T17:04:52.185Z,33.68
2019-05-15T17:07:24.140Z,34.27
2019-05-15T17:10:00.569Z,34.27
2019-05-15T17:12:32.975Z,33.92
2019-05-15T17:15:03.141Z,33.50
2019-05-15T17:17:34.538Z,33.74
2019-05-15T17:20:04.238Z,33.74
2019-05-15T17:22:33.655Z,33.36
2019-05-15T17:25:05.923Z,33.44
2019-05-15T17:27:36.129Z,33.28
2019-05-15T17:30:08.946Z,33.28
2019-05-15T17:32:38.837Z,34.15
2019-05-15T17:35:10.122Z,34.12
2019-05-15T17:37:41.650Z,34.21
2019-05-15T17:40:17.833Z,34.50
2019-05-15T17:42:53.081Z,34.50
2019-05-15T17:45:28.264Z,34.21
2019-05-15T17:47:58.438Z,35.05
2019-05-15T17:50:29.486Z,35.29
2019-05-15T17:53:05.964Z,35.29
2019-05-15T17:55:38.269Z,35.77
2019-05-15T17:58:09.214Z,36.33
2019-05-15T18:00:39.516Z,36.46
2019-05-15T18:03:11.193Z,36.46
2019-05-15T18:05:43.921Z,36.23
2019-05-15T18:08:19.173Z,36.58
2019-05-15T18:10:52.157Z,36.58
2019-05-15T18:13:24.139Z,36.96
2019-05-15T18:15:54.239Z,36.96
2019-05-15T18:18:25.296Z,37.10
2019-05-15T18:20:55.070Z,36.91
2019-05-15T18:23:26.410Z,37.08
2019-05-15T18:25:58.394Z,37.36
2019-05-15T18:28:32.079Z,37.36
2019-05-15T18:31:01.499Z,37.35
2019-05-15T18:33:31.113Z,37.35
2019-05-15T18:36:01.403Z,37.78
2019-05-15T18:38:30.843Z,38.53
2019-05-15T18:41:00.538Z,38.53
2019-05-15T18:43:30.681Z,39.25
2019-05-15T18:46:01.711Z,39.25
2019-05-15T18:48:38.040Z,39.29
2019-05-15T18:51:08.580Z,39.59
2019-05-15T18:53:43.563Z,39.64
2019-05-15T18:56:18.525Z,39.67
2019-05-15T18:58:48.494Z,39.89
2019-05-15T19:01:18.079Z,40.49
2019-05-15T19:03:47.946Z,40.49
2019-05-15T19:06:19.918Z,40.74
2019-05-15T19:08:53.855Z,40.86
2019-05-15T19:11:23.678Z,40.86
2019-05-15T19:13:53.986Z,41.07
2019-05-15T19:16:23.592Z,41.49
2019-05-15T19:18:53.138Z,41.30
2019-05-15T19:21:22.984Z,41.86
2019-05-15T19:23:52.557Z,42.28
2019-05-15T19:26:23.760Z,43.11
2019-05-15T19:28:55.081Z,43.40
2019-05-15T19:31:29.768Z,42.93
2019-05-15T19:33:55.984Z,42.93
2019-05-15T19:36:27.809Z,44.16
2019-05-15T19:38:58.149Z,43.52
2019-05-15T19:41:31.099Z,43.79
2019-05-15T19:44:02.589Z,43.79
2019-05-15T19:46:32.595Z,44.28
2019-05-15T19:49:02.267Z,44.63
2019-05-15T19:51:32.731Z,44.78
2019-05-15T19:54:02.362Z,44.78
2019-05-15T19:56:31.808Z,45.21
2019-05-15T19:59:01.699Z,45.78
2019-05-15T20:01:34.356Z,45.78
2019-05-15T20:04:07.908Z,45.25
2019-05-15T20:07:07.914Z,45.76
2019-05-15T20:09:41.226Z,46.05
2019-05-15T20:12:11.806Z,46.05
2019-05-15T20:14:43.200Z,45.34
2019-05-15T20:17:14.098Z,45.90
2019-05-15T20:19:44.597Z,45.90
2019-05-15T20:22:18.819Z,46.31
2019-05-15T20:24:50.901Z,46.25
2019-05-15T20:27:21.144Z,46.25
2019-05-15T20:29:54.617Z,46.86
2019-05-15T20:32:24.253Z,46.94
2019-05-15T20:34:54.214Z,46.94
2019-05-15T20:37:23.814Z,47.70
2019-05-15T20:39:55.325Z,47.70
2019-05-15T20:42:24.733Z,48.03
2019-05-15T20:44:55.072Z,48.45
2019-05-15T20:47:24.546Z,48.45
2019-05-15T20:49:55.422Z,49.24
2019-05-15T20:52:25.302Z,49.24
2019-05-15T20:55:07.915Z,49.84
2019-05-15T20:57:33.553Z,50.07
2019-05-15T21:00:03.375Z,50.07
2019-05-15T21:02:35.221Z,49.98
2019-05-15T21:05:04.977Z,50.19
2019-05-15T21:07:38.812Z,49.87
2019-05-15T21:10:08.512Z,49.87
2019-05-15T21:12:41.053Z,50.13
2019-05-15T21:15:09.466Z,50.14
2019-05-15T21:17:41.028Z,50.12
2019-05-15T21:20:13.009Z,50.43
2019-05-15T21:22:42.960Z,50.42
2019-05-15T21:25:12.364Z,50.87
2019-05-15T21:27:44.978Z,50.87
2019-05-15T21:30:19.035Z,51.26
2019-05-15T21:32:49.591Z,51.26
2019-05-15T21:35:19.728Z,51.33
2019-05-15T21:37:49.327Z,51.33
2019-05-15T21:40:19.083Z,52.27
2019-05-15T21:42:50.705Z,52.27
2019-05-15T21:45:20.196Z,51.81
2019-05-15T21:47:49.709Z,51.85
2019-05-15T21:50:19.602Z,51.85
2019-05-15T21:52:51.422Z,51.33
2019-05-15T21:55:21.133Z,51.86
2019-05-15T21:57:51.265Z,51.66
2019-05-15T22:00:29.048Z,51.66
2019-05-15T22:02:59.108Z,51.77
2019-05-15T22:05:29.277Z,51.77
2019-05-15T22:07:59.100Z,51.77
2019-05-15T22:10:29.574Z,51.54
2019-05-15T22:19:10.985Z,52.72
2019-05-15T22:21:41.211Z,52.19
2019-05-15T22:24:10.918Z,52.96
2019-05-15T22:26:41.161Z,52.96
2019-05-15T22:29:11.702Z,52.98
2019-05-15T22:31:41.587Z,53.13
2019-05-15T22:34:11.762Z,52.77
2019-05-15T22:36:41.738Z,52.45
2019-05-15T22:39:11.632Z,53.20
2019-05-15T22:41:41.647Z,53.20
2019-05-15T22:44:11.475Z,55.53
2019-05-15T22:46:41.502Z,55.53
2019-05-15T22:49:11.279Z,54.56
2019-05-15T22:51:41.223Z,54.56
2019-05-15T22:54:10.746Z,54.52
2019-05-15T22:56:40.933Z,53.83
2019-05-15T22:59:10.475Z,53.83
2019-05-15T23:01:40.395Z,53.94
2019-05-15T23:04:10.206Z,54.97
2019-05-15T23:06:40.084Z,54.75
2019-05-15T23:09:09.633Z,54.75
2019-05-15T23:11:39.855Z,55.13
2019-05-15T23:14:09.456Z,54.87
2019-05-15T23:16:39.302Z,54.87
2019-05-15T23:19:09.082Z,55.53
2019-05-15T23:21:40.262Z,54.76
2019-05-15T23:24:10.400Z,55.07
2019-05-15T23:26:40.717Z,56.04
2019-05-15T23:29:10.410Z,55.73
2019-05-15T23:31:40.436Z,55.42
2019-05-15T23:34:10.316Z,55.42
2019-05-15T23:36:40.569Z,55.58
2019-05-15T23:39:10.509Z,55.58
2019-05-15T23:41:40.811Z,56.31
2019-05-15T23:44:10.421Z,56.31
2019-05-15T23:46:40.378Z,56.57
2019-05-15T23:49:10.275Z,56.36
2019-05-15T23:51:40.115Z,57.07
2019-05-15T23:54:10.202Z,56.97
2019-05-15T23:56:39.966Z,57.16
2019-05-15T23:59:09.728Z,57.16
